sensor_id;sensor_type;location;lat;lon;timestamp;P1;durP1;ratioP1;P2;durP2;ratioP2
31760;SDS011;18335;51.486;7.562;2023-05-07T00:02:05;10.25;;;5.80;;
31760;SDS011;18335;51.486;7.562;2023-05-07T00:04:32;9.45;;;5.50;;
31760;SDS011;18335;51.486;7.562;2023-05-07T00:07:02;11.73;;;7.43;;
31760;SDS011;18335;51.486;7.562;2023-05-07T00:09:29;13.20;;;5.60;;
31760;SDS011;18335;51.486;7.562;2023-05-07T00:11:56;8.27;;;5.43;;
31760;SDS011;18335;51.486;7.562;2023-05-07T00:14:23;8.88;;;5.10;;
31760;SDS011;18335;51.486;7.562;2023-05-07T00:16:49;8.70;;;4.68;;
31760;SDS011;18335;51.486;7.562;2023-05-07T00:19:17;9.65;;;5.32;;
31760;SDS011;18335;51.486;7.562;2023-05-07T00:21:44;17.95;;;7.90;;
31760;SDS011;18335;51.486;7.562;2023-05-07T00:24:11;11.05;;;5.25;;
31760;SDS011;18335;51.486;7.562;2023-05-07T00:26:38;12.98;;;6.10;;
31760;SDS011;18335;51.486;7.562;2023-05-07T00:29:05;11.85;;;5.60;;
31760;SDS011;18335;51.486;7.562;2023-05-07T00:31:31;9.15;;;5.95;;
31760;SDS011;18335;51.486;7.562;2023-05-07T00:33:58;8.70;;;5.07;;
31760;SDS011;18335;51.486;7.562;2023-05-07T00:36:26;11.23;;;5.55;;
31760;SDS011;18335;51.486;7.562;2023-05-07T00:38:54;9.23;;;5.22;;
31760;SDS011;18335;51.486;7.562;2023-05-07T00:41:23;11.25;;;5.28;;
31760;SDS011;18335;51.486;7.562;2023-05-07T00:43:50;8.75;;;5.20;;
31760;SDS011;18335;51.486;7.562;2023-05-07T00:46:18;10.98;;;5.38;;
31760;SDS011;18335;51.486;7.562;2023-05-07T00:48:46;8.77;;;5.50;;
31760;SDS011;18335;51.486;7.562;2023-05-07T00:51:13;10.63;;;6.65;;
31760;SDS011;18335;51.486;7.562;2023-05-07T00:53:41;8.75;;;4.85;;
31760;SDS011;18335;51.486;7.562;2023-05-07T00:56:08;10.43;;;6.18;;
31760;SDS011;18335;51.486;7.562;2023-05-07T00:58:36;11.40;;;6.43;;
31760;SDS011;18335;51.486;7.562;2023-05-07T01:01:03;12.75;;;5.75;;
31760;SDS011;18335;51.486;7.562;2023-05-07T01:03:29;8.75;;;5.43;;
31760;SDS011;18335;51.486;7.562;2023-05-07T01:05:57;12.18;;;6.00;;
31760;SDS011;18335;51.486;7.562;2023-05-07T01:08:25;9.02;;;5.30;;
31760;SDS011;18335;51.486;7.562;2023-05-07T01:10:56;11.38;;;5.53;;
31760;SDS011;18335;51.486;7.562;2023-05-07T01:13:23;12.27;;;7.28;;
31760;SDS011;18335;51.486;7.562;2023-05-07T01:15:51;11.15;;;6.47;;
31760;SDS011;18335;51.486;7.562;2023-05-07T01:18:18;12.13;;;6.40;;
31760;SDS011;18335;51.486;7.562;2023-05-07T01:20:45;11.70;;;6.97;;
31760;SDS011;18335;51.486;7.562;2023-05-07T01:23:13;10.38;;;6.20;;
31760;SDS011;18335;51.486;7.562;2023-05-07T01:25:41;9.43;;;5.47;;
31760;SDS011;18335;51.486;7.562;2023-05-07T01:28:09;7.78;;;4.95;;
31760;SDS011;18335;51.486;7.562;2023-05-07T01:30:38;12.07;;;5.55;;
31760;SDS011;18335;51.486;7.562;2023-05-07T01:33:08;11.40;;;5.97;;
31760;SDS011;18335;51.486;7.562;2023-05-07T01:35:38;9.95;;;6.03;;
31760;SDS011;18335;51.486;7.562;2023-05-07T01:38:08;10.40;;;5.85;;
31760;SDS011;18335;51.486;7.562;2023-05-07T01:40:36;11.60;;;6.13;;
31760;SDS011;18335;51.486;7.562;2023-05-07T01:43:03;9.40;;;6.15;;
31760;SDS011;18335;51.486;7.562;2023-05-07T01:45:33;11.73;;;6.15;;
31760;SDS011;18335;51.486;7.562;2023-05-07T01:48:01;12.70;;;5.90;;
31760;SDS011;18335;51.486;7.562;2023-05-07T01:50:28;11.80;;;6.00;;
31760;SDS011;18335;51.486;7.562;2023-05-07T01:52:55;10.48;;;5.70;;
31760;SDS011;18335;51.486;7.562;2023-05-07T01:55:23;9.77;;;5.32;;
31760;SDS011;18335;51.486;7.562;2023-05-07T01:57:51;13.52;;;6.35;;
31760;SDS011;18335;51.486;7.562;2023-05-07T02:00:18;10.48;;;5.35;;
31760;SDS011;18335;51.486;7.562;2023-05-07T02:02:46;8.70;;;5.63;;
31760;SDS011;18335;51.486;7.562;2023-05-07T02:05:25;9.32;;;5.32;;
31760;SDS011;18335;51.486;7.562;2023-05-07T02:08:00;9.82;;;5.97;;
31760;SDS011;18335;51.486;7.562;2023-05-07T02:10:28;9.68;;;6.25;;
31760;SDS011;18335;51.486;7.562;2023-05-07T02:12:56;9.82;;;5.78;;
31760;SDS011;18335;51.486;7.562;2023-05-07T02:15:23;7.85;;;4.72;;
31760;SDS011;18335;51.486;7.562;2023-05-07T02:17:58;9.52;;;5.68;;
31760;SDS011;18335;51.486;7.562;2023-05-07T02:20:26;11.93;;;5.22;;
31760;SDS011;18335;51.486;7.562;2023-05-07T02:22:53;8.57;;;5.25;;
31760;SDS011;18335;51.486;7.562;2023-05-07T02:25:20;10.32;;;4.90;;
31760;SDS011;18335;51.486;7.562;2023-05-07T02:27:47;11.43;;;5.60;;
31760;SDS011;18335;51.486;7.562;2023-05-07T02:30:16;10.60;;;4.90;;
31760;SDS011;18335;51.486;7.562;2023-05-07T02:32:42;9.55;;;5.50;;
31760;SDS011;18335;51.486;7.562;2023-05-07T02:35:09;9.48;;;4.88;;
31760;SDS011;18335;51.486;7.562;2023-05-07T02:37:36;9.57;;;4.65;;
31760;SDS011;18335;51.486;7.562;2023-05-07T02:40:04;9.80;;;5.20;;
31760;SDS011;18335;51.486;7.562;2023-05-07T02:42:32;9.88;;;5.35;;
31760;SDS011;18335;51.486;7.562;2023-05-07T02:44:58;9.10;;;4.55;;
31760;SDS011;18335;51.486;7.562;2023-05-07T02:47:27;8.13;;;5.22;;
31760;SDS011;18335;51.486;7.562;2023-05-07T02:49:54;9.13;;;4.65;;
31760;SDS011;18335;51.486;7.562;2023-05-07T02:52:21;8.20;;;4.68;;
31760;SDS011;18335;51.486;7.562;2023-05-07T02:54:48;10.20;;;4.68;;
31760;SDS011;18335;51.486;7.562;2023-05-07T02:57:15;7.57;;;4.20;;
31760;SDS011;18335;51.486;7.562;2023-05-07T02:59:42;9.40;;;4.53;;
31760;SDS011;18335;51.486;7.562;2023-05-07T03:02:10;7.88;;;4.68;;
31760;SDS011;18335;51.486;7.562;2023-05-07T03:04:39;10.07;;;4.50;;
31760;SDS011;18335;51.486;7.562;2023-05-07T03:07:06;6.70;;;3.72;;
31760;SDS011;18335;51.486;7.562;2023-05-07T03:09:33;9.50;;;3.78;;
31760;SDS011;18335;51.486;7.562;2023-05-07T03:11:59;7.50;;;4.22;;
31760;SDS011;18335;51.486;7.562;2023-05-07T03:14:27;9.55;;;4.97;;
31760;SDS011;18335;51.486;7.562;2023-05-07T03:16:53;7.25;;;3.83;;
31760;SDS011;18335;51.486;7.562;2023-05-07T03:19:20;7.45;;;4.22;;
31760;SDS011;18335;51.486;7.562;2023-05-07T03:21:48;9.45;;;4.22;;
31760;SDS011;18335;51.486;7.562;2023-05-07T03:24:15;7.35;;;3.70;;
31760;SDS011;18335;51.486;7.562;2023-05-07T03:26:42;7.20;;;4.07;;
31760;SDS011;18335;51.486;7.562;2023-05-07T03:29:09;9.13;;;4.20;;
31760;SDS011;18335;51.486;7.562;2023-05-07T03:31:35;11.10;;;4.43;;
31760;SDS011;18335;51.486;7.562;2023-05-07T03:34:03;12.55;;;4.63;;
31760;SDS011;18335;51.486;7.562;2023-05-07T03:36:30;7.78;;;3.85;;
31760;SDS011;18335;51.486;7.562;2023-05-07T03:38:59;7.55;;;3.55;;
31760;SDS011;18335;51.486;7.562;2023-05-07T03:41:33;10.77;;;4.43;;
31760;SDS011;18335;51.486;7.562;2023-05-07T03:44:00;8.88;;;4.18;;
31760;SDS011;18335;51.486;7.562;2023-05-07T03:46:27;8.50;;;4.28;;
31760;SDS011;18335;51.486;7.562;2023-05-07T03:48:54;8.30;;;4.40;;
31760;SDS011;18335;51.486;7.562;2023-05-07T03:51:21;8.93;;;3.67;;
31760;SDS011;18335;51.486;7.562;2023-05-07T03:53:48;8.63;;;4.28;;
31760;SDS011;18335;51.486;7.562;2023-05-07T03:56:16;7.63;;;4.32;;
31760;SDS011;18335;51.486;7.562;2023-05-07T03:58:43;8.55;;;4.00;;
31760;SDS011;18335;51.486;7.562;2023-05-07T04:01:10;8.07;;;3.83;;
31760;SDS011;18335;51.486;7.562;2023-05-07T04:03:37;9.68;;;4.20;;
31760;SDS011;18335;51.486;7.562;2023-05-07T04:06:04;10.27;;;4.93;;
31760;SDS011;18335;51.486;7.562;2023-05-07T04:08:33;7.35;;;4.22;;
31760;SDS011;18335;51.486;7.562;2023-05-07T04:11:00;7.78;;;4.45;;
31760;SDS011;18335;51.486;7.562;2023-05-07T04:13:32;8.38;;;4.53;;
31760;SDS011;18335;51.486;7.562;2023-05-07T04:16:01;8.60;;;4.45;;
31760;SDS011;18335;51.486;7.562;2023-05-07T04:18:28;8.20;;;4.47;;
31760;SDS011;18335;51.486;7.562;2023-05-07T04:20:55;7.90;;;4.22;;
31760;SDS011;18335;51.486;7.562;2023-05-07T04:23:22;7.95;;;4.30;;
31760;SDS011;18335;51.486;7.562;2023-05-07T04:25:49;10.25;;;4.60;;
31760;SDS011;18335;51.486;7.562;2023-05-07T04:28:28;8.27;;;4.70;;
31760;SDS011;18335;51.486;7.562;2023-05-07T04:30:57;8.88;;;4.50;;
31760;SDS011;18335;51.486;7.562;2023-05-07T04:33:24;13.45;;;4.88;;
31760;SDS011;18335;51.486;7.562;2023-05-07T04:35:51;9.90;;;5.22;;
31760;SDS011;18335;51.486;7.562;2023-05-07T04:38:18;9.73;;;4.50;;
31760;SDS011;18335;51.486;7.562;2023-05-07T04:40:48;8.85;;;4.93;;
31760;SDS011;18335;51.486;7.562;2023-05-07T04:43:19;10.18;;;5.82;;
31760;SDS011;18335;51.486;7.562;2023-05-07T04:45:49;13.18;;;5.53;;
31760;SDS011;18335;51.486;7.562;2023-05-07T04:48:18;13.88;;;5.45;;
31760;SDS011;18335;51.486;7.562;2023-05-07T04:50:47;9.75;;;5.28;;
31760;SDS011;18335;51.486;7.562;2023-05-07T04:53:14;9.85;;;4.93;;
31760;SDS011;18335;51.486;7.562;2023-05-07T04:55:41;11.05;;;5.72;;
31760;SDS011;18335;51.486;7.562;2023-05-07T04:58:08;10.93;;;5.40;;
31760;SDS011;18335;51.486;7.562;2023-05-07T05:00:37;10.88;;;5.20;;
31760;SDS011;18335;51.486;7.562;2023-05-07T05:03:06;9.68;;;4.93;;
31760;SDS011;18335;51.486;7.562;2023-05-07T05:05:35;10.25;;;5.55;;
31760;SDS011;18335;51.486;7.562;2023-05-07T05:08:02;9.27;;;5.15;;
31760;SDS011;18335;51.486;7.562;2023-05-07T05:10:29;11.82;;;5.65;;
31760;SDS011;18335;51.486;7.562;2023-05-07T05:12:56;11.20;;;4.75;;
31760;SDS011;18335;51.486;7.562;2023-05-07T05:15:24;8.00;;;4.60;;
31760;SDS011;18335;51.486;7.562;2023-05-07T05:17:51;9.27;;;5.63;;
31760;SDS011;18335;51.486;7.562;2023-05-07T05:20:18;7.65;;;4.72;;
31760;SDS011;18335;51.486;7.562;2023-05-07T05:22:47;8.30;;;5.05;;
31760;SDS011;18335;51.486;7.562;2023-05-07T05:25:14;8.00;;;4.90;;
31760;SDS011;18335;51.486;7.562;2023-05-07T05:27:41;8.40;;;4.57;;
31760;SDS011;18335;51.486;7.562;2023-05-07T05:30:08;8.93;;;4.53;;
31760;SDS011;18335;51.486;7.562;2023-05-07T05:32:37;8.52;;;5.07;;
31760;SDS011;18335;51.486;7.562;2023-05-07T05:35:05;8.05;;;4.60;;
31760;SDS011;18335;51.486;7.562;2023-05-07T05:37:32;8.30;;;4.55;;
31760;SDS011;18335;51.486;7.562;2023-05-07T05:40:02;9.02;;;4.63;;
31760;SDS011;18335;51.486;7.562;2023-05-07T05:42:30;9.10;;;4.68;;
31760;SDS011;18335;51.486;7.562;2023-05-07T05:44:57;7.45;;;4.22;;
31760;SDS011;18335;51.486;7.562;2023-05-07T05:47:25;9.85;;;5.10;;
31760;SDS011;18335;51.486;7.562;2023-05-07T05:49:54;7.32;;;4.47;;
31760;SDS011;18335;51.486;7.562;2023-05-07T05:52:21;10.15;;;4.68;;
31760;SDS011;18335;51.486;7.562;2023-05-07T05:54:49;14.23;;;5.53;;
31760;SDS011;18335;51.486;7.562;2023-05-07T05:57:18;8.65;;;4.13;;
31760;SDS011;18335;51.486;7.562;2023-05-07T05:59:45;7.05;;;4.00;;
31760;SDS011;18335;51.486;7.562;2023-05-07T06:02:13;8.05;;;3.97;;
31760;SDS011;18335;51.486;7.562;2023-05-07T06:04:40;11.02;;;4.32;;
31760;SDS011;18335;51.486;7.562;2023-05-07T06:07:08;7.55;;;3.88;;
31760;SDS011;18335;51.486;7.562;2023-05-07T06:09:35;8.38;;;4.30;;
31760;SDS011;18335;51.486;7.562;2023-05-07T06:12:02;6.82;;;4.15;;
31760;SDS011;18335;51.486;7.562;2023-05-07T06:14:31;9.77;;;3.83;;
31760;SDS011;18335;51.486;7.562;2023-05-07T06:16:58;6.53;;;3.88;;
31760;SDS011;18335;51.486;7.562;2023-05-07T06:19:26;8.73;;;3.95;;
31760;SDS011;18335;51.486;7.562;2023-05-07T06:21:55;10.13;;;4.32;;
31760;SDS011;18335;51.486;7.562;2023-05-07T06:24:23;10.73;;;4.30;;
31760;SDS011;18335;51.486;7.562;2023-05-07T06:26:50;7.68;;;4.10;;
31760;SDS011;18335;51.486;7.562;2023-05-07T06:29:17;8.25;;;3.60;;
31760;SDS011;18335;51.486;7.562;2023-05-07T06:31:46;11.25;;;3.53;;
31760;SDS011;18335;51.486;7.562;2023-05-07T06:34:13;8.70;;;5.25;;
31760;SDS011;18335;51.486;7.562;2023-05-07T06:36:40;8.30;;;4.03;;
31760;SDS011;18335;51.486;7.562;2023-05-07T06:39:32;8.27;;;4.05;;
31760;SDS011;18335;51.486;7.562;2023-05-07T06:41:59;9.55;;;3.97;;
31760;SDS011;18335;51.486;7.562;2023-05-07T06:44:30;9.35;;;3.80;;
31760;SDS011;18335;51.486;7.562;2023-05-07T06:47:24;7.95;;;3.50;;
31760;SDS011;18335;51.486;7.562;2023-05-07T06:49:53;8.93;;;3.60;;
31760;SDS011;18335;51.486;7.562;2023-05-07T06:52:23;10.43;;;3.80;;
31760;SDS011;18335;51.486;7.562;2023-05-07T06:54:51;7.63;;;3.70;;
31760;SDS011;18335;51.486;7.562;2023-05-07T06:57:20;8.63;;;3.58;;
31760;SDS011;18335;51.486;7.562;2023-05-07T06:59:49;8.88;;;4.53;;
31760;SDS011;18335;51.486;7.562;2023-05-07T07:02:17;8.02;;;3.85;;
31760;SDS011;18335;51.486;7.562;2023-05-07T07:04:45;6.05;;;3.50;;
31760;SDS011;18335;51.486;7.562;2023-05-07T07:07:12;8.57;;;3.72;;
31760;SDS011;18335;51.486;7.562;2023-05-07T07:09:42;7.43;;;3.40;;
31760;SDS011;18335;51.486;7.562;2023-05-07T07:12:09;7.80;;;3.58;;
31760;SDS011;18335;51.486;7.562;2023-05-07T07:14:38;8.65;;;3.80;;
31760;SDS011;18335;51.486;7.562;2023-05-07T07:17:05;7.72;;;4.35;;
31760;SDS011;18335;51.486;7.562;2023-05-07T07:19:33;8.75;;;4.38;;
31760;SDS011;18335;51.486;7.562;2023-05-07T07:22:03;9.23;;;4.85;;
31760;SDS011;18335;51.486;7.562;2023-05-07T07:24:30;9.88;;;4.95;;
31760;SDS011;18335;51.486;7.562;2023-05-07T07:27:00;8.85;;;4.47;;
31760;SDS011;18335;51.486;7.562;2023-05-07T07:29:28;7.95;;;4.57;;
31760;SDS011;18335;51.486;7.562;2023-05-07T07:31:55;13.93;;;5.03;;
31760;SDS011;18335;51.486;7.562;2023-05-07T07:34:22;9.45;;;4.50;;
31760;SDS011;18335;51.486;7.562;2023-05-07T07:36:49;9.02;;;4.65;;
31760;SDS011;18335;51.486;7.562;2023-05-07T07:39:19;8.32;;;5.05;;
31760;SDS011;18335;51.486;7.562;2023-05-07T07:41:49;8.23;;;4.47;;
31760;SDS011;18335;51.486;7.562;2023-05-07T07:44:17;8.50;;;4.97;;
31760;SDS011;18335;51.486;7.562;2023-05-07T07:46:49;10.00;;;5.20;;
31760;SDS011;18335;51.486;7.562;2023-05-07T07:49:16;9.02;;;5.93;;
31760;SDS011;18335;51.486;7.562;2023-05-07T07:51:43;11.95;;;5.30;;
31760;SDS011;18335;51.486;7.562;2023-05-07T07:54:12;8.55;;;5.60;;
31760;SDS011;18335;51.486;7.562;2023-05-07T07:56:40;12.00;;;5.50;;
31760;SDS011;18335;51.486;7.562;2023-05-07T07:59:08;10.23;;;6.03;;
31760;SDS011;18335;51.486;7.562;2023-05-07T08:01:38;10.43;;;6.25;;
31760;SDS011;18335;51.486;7.562;2023-05-07T08:04:04;10.68;;;5.85;;
31760;SDS011;18335;51.486;7.562;2023-05-07T08:06:34;11.65;;;6.07;;
31760;SDS011;18335;51.486;7.562;2023-05-07T08:09:02;16.83;;;7.00;;
31760;SDS011;18335;51.486;7.562;2023-05-07T08:11:29;10.55;;;5.80;;
31760;SDS011;18335;51.486;7.562;2023-05-07T08:13:57;14.25;;;6.70;;
31760;SDS011;18335;51.486;7.562;2023-05-07T08:16:24;10.48;;;6.22;;
31760;SDS011;18335;51.486;7.562;2023-05-07T08:18:52;10.70;;;6.97;;
31760;SDS011;18335;51.486;7.562;2023-05-07T08:21:19;9.70;;;6.53;;
31760;SDS011;18335;51.486;7.562;2023-05-07T08:23:45;10.35;;;6.50;;
31760;SDS011;18335;51.486;7.562;2023-05-07T08:26:12;10.63;;;7.07;;
31760;SDS011;18335;51.486;7.562;2023-05-07T08:28:39;10.57;;;5.75;;
31760;SDS011;18335;51.486;7.562;2023-05-07T08:31:08;12.82;;;7.10;;
31760;SDS011;18335;51.486;7.562;2023-05-07T08:33:38;14.05;;;8.10;;
31760;SDS011;18335;51.486;7.562;2023-05-07T08:36:05;14.43;;;7.80;;
31760;SDS011;18335;51.486;7.562;2023-05-07T08:38:32;13.25;;;8.43;;
31760;SDS011;18335;51.486;7.562;2023-05-07T08:40:59;14.63;;;9.38;;
31760;SDS011;18335;51.486;7.562;2023-05-07T08:43:28;15.18;;;9.93;;
31760;SDS011;18335;51.486;7.562;2023-05-07T08:45:59;15.23;;;10.10;;
31760;SDS011;18335;51.486;7.562;2023-05-07T08:48:32;15.80;;;9.88;;
31760;SDS011;18335;51.486;7.562;2023-05-07T08:51:05;12.05;;;8.88;;
31760;SDS011;18335;51.486;7.562;2023-05-07T08:53:32;14.48;;;10.05;;
31760;SDS011;18335;51.486;7.562;2023-05-07T08:55:59;16.00;;;10.75;;
31760;SDS011;18335;51.486;7.562;2023-05-07T08:58:28;15.45;;;9.82;;
31760;SDS011;18335;51.486;7.562;2023-05-07T09:00:55;14.60;;;10.35;;
31760;SDS011;18335;51.486;7.562;2023-05-07T09:03:23;16.35;;;11.45;;
31760;SDS011;18335;51.486;7.562;2023-05-07T09:05:54;15.35;;;10.80;;
31760;SDS011;18335;51.486;7.562;2023-05-07T09:08:24;17.85;;;13.65;;
31760;SDS011;18335;51.486;7.562;2023-05-07T09:10:52;19.00;;;12.98;;
31760;SDS011;18335;51.486;7.562;2023-05-07T09:13:21;18.10;;;12.75;;
31760;SDS011;18335;51.486;7.562;2023-05-07T09:15:49;17.70;;;12.38;;
31760;SDS011;18335;51.486;7.562;2023-05-07T09:18:16;16.88;;;10.63;;
31760;SDS011;18335;51.486;7.562;2023-05-07T09:20:44;16.63;;;13.10;;
31760;SDS011;18335;51.486;7.562;2023-05-07T09:23:13;19.20;;;14.52;;
31760;SDS011;18335;51.486;7.562;2023-05-07T09:25:42;16.73;;;12.70;;
31760;SDS011;18335;51.486;7.562;2023-05-07T09:28:15;18.40;;;13.68;;
31760;SDS011;18335;51.486;7.562;2023-05-07T09:30:41;18.73;;;12.60;;
31760;SDS011;18335;51.486;7.562;2023-05-07T09:33:11;20.52;;;14.40;;
31760;SDS011;18335;51.486;7.562;2023-05-07T09:35:41;18.20;;;14.98;;
31760;SDS011;18335;51.486;7.562;2023-05-07T09:38:14;18.55;;;13.05;;
31760;SDS011;18335;51.486;7.562;2023-05-07T09:40:47;15.88;;;11.60;;
31760;SDS011;18335;51.486;7.562;2023-05-07T09:43:31;16.35;;;12.68;;
31760;SDS011;18335;51.486;7.562;2023-05-07T09:45:59;18.08;;;13.20;;
31760;SDS011;18335;51.486;7.562;2023-05-07T09:48:29;16.98;;;11.40;;
31760;SDS011;18335;51.486;7.562;2023-05-07T09:50:56;19.15;;;11.23;;
31760;SDS011;18335;51.486;7.562;2023-05-07T09:53:31;15.45;;;10.70;;
31760;SDS011;18335;51.486;7.562;2023-05-07T09:56:02;16.67;;;10.60;;
31760;SDS011;18335;51.486;7.562;2023-05-07T09:58:31;17.08;;;12.55;;
31760;SDS011;18335;51.486;7.562;2023-05-07T10:00:59;19.17;;;12.95;;
31760;SDS011;18335;51.486;7.562;2023-05-07T10:03:28;18.27;;;13.23;;
31760;SDS011;18335;51.486;7.562;2023-05-07T10:06:02;17.88;;;12.88;;
31760;SDS011;18335;51.486;7.562;2023-05-07T10:08:32;20.50;;;14.30;;
31760;SDS011;18335;51.486;7.562;2023-05-07T10:11:01;17.15;;;13.05;;
31760;SDS011;18335;51.486;7.562;2023-05-07T10:13:29;18.70;;;14.02;;
31760;SDS011;18335;51.486;7.562;2023-05-07T10:15:58;20.75;;;13.23;;
31760;SDS011;18335;51.486;7.562;2023-05-07T10:18:30;16.38;;;12.45;;
31760;SDS011;18335;51.486;7.562;2023-05-07T10:21:04;14.30;;;10.32;;
31760;SDS011;18335;51.486;7.562;2023-05-07T10:23:35;14.35;;;10.20;;
31760;SDS011;18335;51.486;7.562;2023-05-07T10:26:05;16.92;;;12.05;;
31760;SDS011;18335;51.486;7.562;2023-05-07T10:28:36;16.58;;;11.32;;
31760;SDS011;18335;51.486;7.562;2023-05-07T10:31:14;15.80;;;10.60;;
31760;SDS011;18335;51.486;7.562;2023-05-07T10:33:57;18.65;;;10.32;;
31760;SDS011;18335;51.486;7.562;2023-05-07T10:36:27;15.98;;;10.00;;
31760;SDS011;18335;51.486;7.562;2023-05-07T10:38:56;13.32;;;8.63;;
31760;SDS011;18335;51.486;7.562;2023-05-07T10:41:23;19.85;;;10.75;;
31760;SDS011;18335;51.486;7.562;2023-05-07T10:43:51;17.20;;;10.93;;
31760;SDS011;18335;51.486;7.562;2023-05-07T10:46:23;15.75;;;11.43;;
31760;SDS011;18335;51.486;7.562;2023-05-07T10:49:06;15.88;;;9.65;;
31760;SDS011;18335;51.486;7.562;2023-05-07T10:51:39;17.85;;;11.82;;
31760;SDS011;18335;51.486;7.562;2023-05-07T10:54:22;13.77;;;9.02;;
31760;SDS011;18335;51.486;7.562;2023-05-07T10:56:58;15.63;;;9.02;;
31760;SDS011;18335;51.486;7.562;2023-05-07T11:00:04;15.18;;;9.63;;
31760;SDS011;18335;51.486;7.562;2023-05-07T11:03:17;12.50;;;7.88;;
31760;SDS011;18335;51.486;7.562;2023-05-07T11:06:08;12.13;;;7.35;;
31760;SDS011;18335;51.486;7.562;2023-05-07T11:08:53;14.93;;;8.57;;
31760;SDS011;18335;51.486;7.562;2023-05-07T11:11:45;15.00;;;9.40;;
31760;SDS011;18335;51.486;7.562;2023-05-07T11:17:19;14.80;;;10.30;;
31760;SDS011;18335;51.486;7.562;2023-05-07T11:19:54;13.07;;;8.75;;
31760;SDS011;18335;51.486;7.562;2023-05-07T11:22:39;15.95;;;8.20;;
31760;SDS011;18335;51.486;7.562;2023-05-07T11:25:17;10.88;;;7.85;;
31760;SDS011;18335;51.486;7.562;2023-05-07T11:27:45;15.35;;;9.70;;
31760;SDS011;18335;51.486;7.562;2023-05-07T11:30:16;14.68;;;8.90;;
31760;SDS011;18335;51.486;7.562;2023-05-07T11:32:44;18.25;;;11.07;;
31760;SDS011;18335;51.486;7.562;2023-05-07T11:35:15;13.43;;;8.50;;
31760;SDS011;18335;51.486;7.562;2023-05-07T11:37:44;11.95;;;8.07;;
31760;SDS011;18335;51.486;7.562;2023-05-07T11:40:12;13.38;;;9.23;;
31760;SDS011;18335;51.486;7.562;2023-05-07T11:42:39;13.55;;;9.65;;
31760;SDS011;18335;51.486;7.562;2023-05-07T11:45:09;15.68;;;8.85;;
31760;SDS011;18335;51.486;7.562;2023-05-07T11:47:36;12.70;;;8.00;;
31760;SDS011;18335;51.486;7.562;2023-05-07T11:50:05;12.68;;;8.25;;
31760;SDS011;18335;51.486;7.562;2023-05-07T11:52:36;12.50;;;7.35;;
31760;SDS011;18335;51.486;7.562;2023-05-07T11:55:04;12.80;;;6.85;;
31760;SDS011;18335;51.486;7.562;2023-05-07T11:57:32;14.52;;;8.43;;
31760;SDS011;18335;51.486;7.562;2023-05-07T12:00:00;14.15;;;8.27;;
31760;SDS011;18335;51.486;7.562;2023-05-07T12:02:39;15.10;;;8.45;;
31760;SDS011;18335;51.486;7.562;2023-05-07T12:05:07;14.38;;;8.07;;
31760;SDS011;18335;51.486;7.562;2023-05-07T12:07:35;14.07;;;8.52;;
31760;SDS011;18335;51.486;7.562;2023-05-07T12:10:04;11.75;;;7.72;;
31760;SDS011;18335;51.486;7.562;2023-05-07T12:12:31;13.45;;;8.60;;
31760;SDS011;18335;51.486;7.562;2023-05-07T12:15:05;12.07;;;7.57;;
31760;SDS011;18335;51.486;7.562;2023-05-07T12:17:34;15.90;;;9.07;;
31760;SDS011;18335;51.486;7.562;2023-05-07T12:20:02;12.52;;;8.50;;
31760;SDS011;18335;51.486;7.562;2023-05-07T12:22:30;12.55;;;7.63;;
31760;SDS011;18335;51.486;7.562;2023-05-07T12:24:57;16.15;;;7.63;;
31760;SDS011;18335;51.486;7.562;2023-05-07T12:27:25;15.98;;;10.10;;
31760;SDS011;18335;51.486;7.562;2023-05-07T12:29:52;14.30;;;9.05;;
31760;SDS011;18335;51.486;7.562;2023-05-07T12:32:19;12.43;;;8.10;;
31760;SDS011;18335;51.486;7.562;2023-05-07T12:34:49;11.65;;;7.85;;
31760;SDS011;18335;51.486;7.562;2023-05-07T12:37:23;17.35;;;9.25;;
31760;SDS011;18335;51.486;7.562;2023-05-07T12:40:03;13.00;;;8.55;;
31760;SDS011;18335;51.486;7.562;2023-05-07T12:42:32;16.05;;;8.35;;
31760;SDS011;18335;51.486;7.562;2023-05-07T12:45:07;13.13;;;8.63;;
31760;SDS011;18335;51.486;7.562;2023-05-07T12:47:35;13.07;;;7.95;;
31760;SDS011;18335;51.486;7.562;2023-05-07T12:50:02;13.77;;;8.80;;
31760;SDS011;18335;51.486;7.562;2023-05-07T12:52:30;11.63;;;7.70;;
31760;SDS011;18335;51.486;7.562;2023-05-07T12:54:57;16.10;;;7.65;;
31760;SDS011;18335;51.486;7.562;2023-05-07T12:57:31;11.48;;;6.88;;
31760;SDS011;18335;51.486;7.562;2023-05-07T13:00:04;13.48;;;7.80;;
31760;SDS011;18335;51.486;7.562;2023-05-07T13:02:32;13.00;;;6.60;;
31760;SDS011;18335;51.486;7.562;2023-05-07T13:05:00;10.27;;;6.70;;
31760;SDS011;18335;51.486;7.562;2023-05-07T13:07:27;11.27;;;6.25;;
31760;SDS011;18335;51.486;7.562;2023-05-07T13:09:55;10.70;;;6.13;;
31760;SDS011;18335;51.486;7.562;2023-05-07T13:12:22;10.25;;;5.95;;
31760;SDS011;18335;51.486;7.562;2023-05-07T13:14:49;11.48;;;6.72;;
31760;SDS011;18335;51.486;7.562;2023-05-07T13:17:16;10.55;;;5.70;;
31760;SDS011;18335;51.486;7.562;2023-05-07T13:19:43;11.63;;;6.07;;
31760;SDS011;18335;51.486;7.562;2023-05-07T13:22:10;16.08;;;7.28;;
31760;SDS011;18335;51.486;7.562;2023-05-07T13:24:37;13.30;;;7.75;;
31760;SDS011;18335;51.486;7.562;2023-05-07T13:27:08;11.85;;;7.43;;
31760;SDS011;18335;51.486;7.562;2023-05-07T13:29:35;11.75;;;6.95;;
31760;SDS011;18335;51.486;7.562;2023-05-07T13:32:01;11.88;;;6.72;;
31760;SDS011;18335;51.486;7.562;2023-05-07T13:34:28;11.73;;;7.00;;
31760;SDS011;18335;51.486;7.562;2023-05-07T13:36:55;13.25;;;6.60;;
31760;SDS011;18335;51.486;7.562;2023-05-07T13:39:22;11.35;;;6.78;;
31760;SDS011;18335;51.486;7.562;2023-05-07T13:41:49;13.55;;;7.65;;
31760;SDS011;18335;51.486;7.562;2023-05-07T13:44:17;11.57;;;7.03;;
31760;SDS011;18335;51.486;7.562;2023-05-07T13:46:43;11.32;;;7.43;;
31760;SDS011;18335;51.486;7.562;2023-05-07T13:49:10;12.82;;;7.70;;
31760;SDS011;18335;51.486;7.562;2023-05-07T13:51:38;12.45;;;7.13;;
31760;SDS011;18335;51.486;7.562;2023-05-07T13:54:04;14.10;;;8.05;;
31760;SDS011;18335;51.486;7.562;2023-05-07T13:56:31;11.75;;;7.72;;
31760;SDS011;18335;51.486;7.562;2023-05-07T13:58:58;13.45;;;8.55;;
31760;SDS011;18335;51.486;7.562;2023-05-07T14:01:26;16.27;;;9.57;;
31760;SDS011;18335;51.486;7.562;2023-05-07T14:03:53;15.27;;;8.93;;
31760;SDS011;18335;51.486;7.562;2023-05-07T14:06:20;14.15;;;8.85;;
31760;SDS011;18335;51.486;7.562;2023-05-07T14:08:47;12.20;;;8.10;;
31760;SDS011;18335;51.486;7.562;2023-05-07T14:11:14;14.23;;;7.93;;
31760;SDS011;18335;51.486;7.562;2023-05-07T14:13:41;12.75;;;8.38;;
31760;SDS011;18335;51.486;7.562;2023-05-07T14:16:09;18.33;;;8.43;;
31760;SDS011;18335;51.486;7.562;2023-05-07T14:18:37;11.38;;;8.52;;
31760;SDS011;18335;51.486;7.562;2023-05-07T14:21:06;11.35;;;7.22;;
31760;SDS011;18335;51.486;7.562;2023-05-07T14:23:35;10.88;;;6.93;;
31760;SDS011;18335;51.486;7.562;2023-05-07T14:26:01;10.38;;;5.88;;
31760;SDS011;18335;51.486;7.562;2023-05-07T14:28:28;9.77;;;5.93;;
31760;SDS011;18335;51.486;7.562;2023-05-07T14:30:55;9.82;;;5.93;;
31760;SDS011;18335;51.486;7.562;2023-05-07T14:33:22;9.13;;;5.28;;
31760;SDS011;18335;51.486;7.562;2023-05-07T14:35:50;9.55;;;6.00;;
31760;SDS011;18335;51.486;7.562;2023-05-07T14:38:16;10.27;;;5.65;;
31760;SDS011;18335;51.486;7.562;2023-05-07T14:40:43;9.65;;;5.80;;
31760;SDS011;18335;51.486;7.562;2023-05-07T14:43:11;10.90;;;6.07;;
31760;SDS011;18335;51.486;7.562;2023-05-07T14:45:37;10.05;;;5.00;;
31760;SDS011;18335;51.486;7.562;2023-05-07T14:48:04;10.85;;;5.00;;
31760;SDS011;18335;51.486;7.562;2023-05-07T14:50:31;7.53;;;4.05;;
31760;SDS011;18335;51.486;7.562;2023-05-07T14:52:59;7.68;;;4.30;;